Terminal Aerodrome Forecast
Issued by NWS

Home | Current Version | Previous Version | Text Only | Print | Product List | Glossary On
Versions: 1 2 3 4 5 6 7 8 9 10 11 12 13 14 15
000
FTUS41 KPBZ 041738
TAFBVI
TAF
KBVI 041738Z 0418/0518 VRB05KT P6SM SCT040 BKN250
     FM051000 VRB03KT 4SM BR SCT250
     FM051400 16005KT P6SM SCT040 BKN250=

USA.gov is the U.S. government's official web portal to all federal, state and local government web resources and services.